createdAt,value
2022-10-22T00:00:28.780Z,99870.94
2022-10-22T00:01:15.700Z,99869.63
2022-10-22T00:02:02.711Z,99872.84
2022-10-22T00:02:49.684Z,99872.84
2022-10-22T00:03:36.750Z,99874.00
2022-10-22T00:04:24.178Z,99868.91
2022-10-22T00:05:11.860Z,99870.47
2022-10-22T00:05:58.932Z,99875.22
2022-10-22T00:06:45.849Z,99875.09
2022-10-22T00:07:33.391Z,99881.13
2022-10-22T00:08:20.592Z,99877.09
2022-10-22T00:09:07.591Z,99878.09
2022-10-22T00:09:54.480Z,99883.84
2022-10-22T00:10:41.864Z,99878.97
2022-10-22T00:11:29.671Z,99882.34
2022-10-22T00:12:16.883Z,99883.31
2022-10-22T00:13:03.993Z,99885.16
2022-10-22T00:13:51.142Z,99885.53
2022-10-22T00:14:38.232Z,99882.03
2022-10-22T00:15:25.293Z,99884.91
2022-10-22T00:16:12.521Z,99885.22
2022-10-22T00:17:01.202Z,99881.34
2022-10-22T00:17:49.821Z,99880.13
2022-10-22T00:18:37.281Z,99885.72
2022-10-22T00:19:24.394Z,99883.19
2022-10-22T00:20:11.783Z,99886.41
2022-10-22T00:20:58.771Z,99881.69
2022-10-22T00:21:45.683Z,99874.44
2022-10-22T00:22:32.600Z,99872.13
2022-10-22T00:23:19.510Z,99878.34
2022-10-22T00:24:06.629Z,99874.00
2022-10-22T00:24:53.541Z,99874.00
2022-10-22T00:25:40.634Z,99875.00
2022-10-22T00:26:27.830Z,99870.44
2022-10-22T00:27:14.959Z,99868.94
2022-10-22T00:28:02.842Z,99870.50
2022-10-22T00:28:49.798Z,99870.19
2022-10-22T00:29:36.960Z,99862.63
2022-10-22T00:30:24.200Z,99860.59
2022-10-22T00:31:11.184Z,99855.22
2022-10-22T00:31:58.132Z,99858.06
2022-10-22T00:32:45.631Z,99849.81
2022-10-22T00:33:32.720Z,99854.00
2022-10-22T00:34:21.571Z,99852.50
2022-10-22T00:35:08.721Z,99854.38
2022-10-22T00:35:55.880Z,99855.38
2022-10-22T00:36:42.931Z,99860.44
2022-10-22T00:37:30.730Z,99869.84
2022-10-22T00:38:17.691Z,99864.09
2022-10-22T00:39:04.692Z,99862.44
2022-10-22T00:39:51.641Z,99865.97
2022-10-22T00:40:38.582Z,99867.16
2022-10-22T00:41:25.610Z,99858.41
2022-10-22T00:42:19.750Z,99861.44
2022-10-22T00:43:06.649Z,99861.78
2022-10-22T00:43:55.670Z,99864.31
2022-10-22T00:45:07.689Z,99858.28
2022-10-22T00:45:54.570Z,99859.78
2022-10-22T00:46:41.752Z,99865.66
2022-10-22T00:47:39.881Z,99863.63
2022-10-22T00:48:29.573Z,99867.53
2022-10-22T00:49:16.681Z,99872.91
2022-10-22T00:50:05.923Z,99870.72
2022-10-22T00:50:55.881Z,99868.00
2022-10-22T00:51:42.810Z,99868.22
2022-10-22T00:52:29.910Z,99872.72
2022-10-22T00:53:20.540Z,99862.63
2022-10-22T00:54:07.443Z,99861.50
2022-10-22T00:54:54.360Z,99860.66
2022-10-22T00:55:42.863Z,99866.03
2022-10-22T00:56:29.842Z,99862.53
2022-10-22T00:57:18.250Z,99863.00
2022-10-22T00:58:05.260Z,99852.44
2022-10-22T00:58:54.643Z,99848.03
2022-10-22T00:59:41.741Z,99849.91
2022-10-22T01:00:29.044Z,99852.75
2022-10-22T01:01:23.139Z,99849.03
2022-10-22T01:02:10.264Z,99848.87
2022-10-22T01:02:57.951Z,99841.69
2022-10-22T01:03:44.880Z,99843.69
2022-10-22T01:04:32.559Z,99849.06
2022-10-22T01:05:19.672Z,99843.34
2022-10-22T01:06:06.960Z,99847.38
2022-10-22T01:06:53.932Z,99838.97
2022-10-22T01:07:49.422Z,99839.97
2022-10-22T01:08:51.339Z,99831.91
2022-10-22T01:09:48.600Z,99836.28
2022-10-22T01:10:44.930Z,99834.13
2022-10-22T01:11:56.651Z,99833.09
2022-10-22T01:12:46.780Z,99831.44
2022-10-22T01:13:45.315Z,99836.81
2022-10-22T01:14:35.670Z,99838.16
2022-10-22T01:15:31.909Z,99843.84
2022-10-22T01:16:55.821Z,99841.00
2022-10-22T01:18:30.409Z,99848.03
2022-10-22T01:19:54.711Z,99858.63
2022-10-22T01:20:58.790Z,99854.97
2022-10-22T01:21:53.789Z,99857.97
2022-10-22T01:22:44.131Z,99851.25
2022-10-22T01:23:50.981Z,99843.19
2022-10-22T01:24:53.040Z,99834.59
2022-10-22T01:25:51.301Z,99840.31
2022-10-22T01:27:15.499Z,99834.13
2022-10-22T01:28:19.425Z,99838.97
2022-10-22T01:29:19.270Z,99837.81
2022-10-22T01:30:08.098Z,99841.84
2022-10-22T01:30:56.891Z,99840.66
2022-10-22T01:31:46.931Z,99837.28
2022-10-22T01:32:44.840Z,99838.81
2022-10-22T01:33:32.410Z,99843.69
2022-10-22T01:34:19.580Z,99837.12
2022-10-22T01:35:09.190Z,99831.91
2022-10-22T01:35:56.810Z,99837.28
2022-10-22T01:36:44.710Z,99838.66
2022-10-22T01:37:34.915Z,99833.97
2022-10-22T01:38:24.842Z,99830.59
2022-10-22T01:39:13.141Z,99833.44
2022-10-22T01:40:01.100Z,99829.41
2022-10-22T01:40:48.761Z,99831.25
2022-10-22T01:41:35.653Z,99829.41
2022-10-22T01:42:22.498Z,99826.41
2022-10-22T01:43:11.092Z,99827.22
2022-10-22T01:43:57.921Z,99820.16
2022-10-22T01:44:44.920Z,99823.19
2022-10-22T01:45:37.261Z,99816.47
2022-10-22T01:46:26.070Z,99822.50
2022-10-22T01:48:00.551Z,99816.78
2022-10-22T01:49:12.159Z,99807.22
2022-10-22T01:50:07.491Z,99811.25
2022-10-22T01:51:16.902Z,99812.44
2022-10-22T01:52:36.780Z,99818.50
2022-10-22T01:53:23.680Z,99809.75
2022-10-22T01:54:33.833Z,99811.75
2022-10-22T01:56:03.510Z,99814.78
2022-10-22T01:57:09.729Z,99820.34
2022-10-22T01:58:03.941Z,99827.72
2022-10-22T01:59:15.310Z,99824.69
2022-10-22T02:00:04.644Z,99827.56
2022-10-22T02:01:01.201Z,99828.53
2022-10-22T02:02:04.700Z,99831.38
2022-10-22T02:03:11.412Z,99819.78
2022-10-22T02:04:10.561Z,99828.72
2022-10-22T02:05:08.459Z,99830.22
2022-10-22T02:05:59.115Z,99830.53
2022-10-22T02:06:47.301Z,99827.16
2022-10-22T02:07:49.391Z,99822.28
2022-10-22T02:08:37.010Z,99816.22
2022-10-22T02:09:25.760Z,99817.94
2022-10-22T02:10:13.377Z,99822.28
2022-10-22T02:11:00.850Z,99820.94
2022-10-22T02:11:48.291Z,99814.44
2022-10-22T02:12:35.791Z,99819.59
2022-10-22T02:13:29.409Z,99808.38
2022-10-22T02:14:18.283Z,99806.00
2022-10-22T02:15:05.720Z,99808.03
2022-10-22T02:15:53.520Z,99799.81
2022-10-22T02:16:43.499Z,99801.31
2022-10-22T02:17:32.570Z,99791.41
2022-10-22T02:18:23.729Z,99798.13
2022-10-22T02:19:23.480Z,99802.34
2022-10-22T02:20:21.170Z,99805.69
2022-10-22T02:22:00.322Z,99799.09
2022-10-22T02:22:47.750Z,99789.19
2022-10-22T02:23:34.861Z,99785.19
2022-10-22T02:24:22.210Z,99782.50
2022-10-22T02:25:09.861Z,99786.34
2022-10-22T02:26:07.800Z,99786.19
2022-10-22T02:27:26.932Z,99789.03
2022-10-22T02:28:20.320Z,99780.47
2022-10-22T02:29:19.581Z,99787.34
2022-10-22T02:31:15.802Z,99798.25
2022-10-22T02:32:04.031Z,99802.44
2022-10-22T02:33:09.272Z,99800.25
2022-10-22T02:33:58.341Z,99791.22
2022-10-22T02:34:45.451Z,99790.72
2022-10-22T02:35:32.702Z,99784.66
2022-10-22T02:36:20.231Z,99775.41
2022-10-22T02:37:07.801Z,99776.25
2022-10-22T02:37:55.850Z,99775.09
2022-10-22T02:38:43.430Z,99772.91
2022-10-22T02:39:32.059Z,99774.75
2022-10-22T02:40:19.013Z,99782.13
2022-10-22T02:41:06.094Z,99776.59
2022-10-22T02:41:53.170Z,99778.63
2022-10-22T02:42:41.539Z,99766.03
2022-10-22T02:43:29.890Z,99767.38
2022-10-22T02:44:21.261Z,99766.53
2022-10-22T02:45:08.781Z,99765.88
2022-10-22T02:45:55.882Z,99760.16
2022-10-22T02:46:43.493Z,99767.38
2022-10-22T02:47:30.491Z,99772.41
2022-10-22T02:48:17.733Z,99769.91
2022-10-22T02:49:05.011Z,99771.59
2022-10-22T02:49:52.110Z,99773.09
2022-10-22T02:50:39.099Z,99769.75
2022-10-22T02:51:26.010Z,99768.41
2022-10-22T02:52:12.902Z,99777.78
2022-10-22T02:52:59.880Z,99767.06
2022-10-22T02:53:46.751Z,99765.69
2022-10-22T02:54:33.606Z,99755.63
2022-10-22T02:55:20.489Z,99751.59
2022-10-22T02:56:07.740Z,99748.41
2022-10-22T02:56:54.621Z,99746.91
2022-10-22T02:57:42.319Z,99746.22
2022-10-22T02:58:29.520Z,99739.50
2022-10-22T02:59:16.412Z,99740.50
2022-10-22T03:00:05.701Z,99736.44
2022-10-22T03:00:52.762Z,99729.56
2022-10-22T03:01:39.720Z,99725.03
2022-10-22T03:02:26.710Z,99730.56
2022-10-22T03:03:13.751Z,99727.41
2022-10-22T03:04:00.751Z,99731.94
2022-10-22T03:04:48.470Z,99726.56
2022-10-22T03:05:35.422Z,99723.22
2022-10-22T03:06:22.422Z,99724.03
2022-10-22T03:07:09.491Z,99731.06
2022-10-22T03:07:56.410Z,99729.41
2022-10-22T03:08:43.707Z,99719.00
2022-10-22T03:09:30.900Z,99732.25
2022-10-22T03:10:17.800Z,99730.59
2022-10-22T03:11:04.722Z,99728.25
2022-10-22T03:11:51.804Z,99733.44
2022-10-22T03:12:38.790Z,99735.78
2022-10-22T03:13:25.793Z,99736.81
2022-10-22T03:14:12.909Z,99740.66
2022-10-22T03:14:59.941Z,99742.00
2022-10-22T03:15:49.742Z,99745.03
2022-10-22T03:16:36.730Z,99744.19
2022-10-22T03:17:23.621Z,99746.19
2022-10-22T03:18:10.652Z,99761.81
2022-10-22T03:18:57.520Z,99758.63
2022-10-22T03:19:44.419Z,99754.25
2022-10-22T03:20:31.499Z,99756.63
2022-10-22T03:21:35.030Z,99758.66
2022-10-22T03:22:25.500Z,99764.72
2022-10-22T03:23:14.762Z,99766.91
2022-10-22T03:24:08.171Z,99763.84
2022-10-22T03:24:59.850Z,99769.56
2022-10-22T03:25:48.659Z,99764.22
2022-10-22T03:26:36.340Z,99758.50
2022-10-22T03:27:23.612Z,99765.69
2022-10-22T03:28:11.432Z,99760.50
2022-10-22T03:28:58.500Z,99761.50
2022-10-22T03:29:47.153Z,99762.53
2022-10-22T03:30:34.030Z,99762.69
2022-10-22T03:31:21.000Z,99763.69
2022-10-22T03:32:08.040Z,99759.16
2022-10-22T03:32:54.912Z,99763.38
2022-10-22T03:33:41.833Z,99763.03
2022-10-22T03:34:28.879Z,99767.41
2022-10-22T03:35:15.820Z,99767.22
2022-10-22T03:36:02.791Z,99769.22
2022-10-22T03:36:50.172Z,99772.94
2022-10-22T03:37:37.674Z,99770.41
2022-10-22T03:38:24.991Z,99784.19
2022-10-22T03:39:13.870Z,99774.94
2022-10-22T03:40:00.909Z,99777.97
2022-10-22T03:40:47.971Z,99782.16
2022-10-22T03:41:35.620Z,99790.53
2022-10-22T03:42:22.691Z,99775.78
2022-10-22T03:43:09.796Z,99777.28
2022-10-22T03:43:57.802Z,99768.56
2022-10-22T03:44:44.650Z,99772.06
2022-10-22T03:45:31.705Z,99763.69
2022-10-22T03:46:19.271Z,99773.22
2022-10-22T03:47:06.821Z,99783.44
2022-10-22T03:47:53.871Z,99771.22
2022-10-22T03:48:40.721Z,99762.16
2022-10-22T03:49:27.620Z,99772.72
2022-10-22T03:50:14.590Z,99774.44
2022-10-22T03:51:01.531Z,99768.03
2022-10-22T03:51:48.540Z,99775.56
2022-10-22T03:52:37.539Z,99777.28
2022-10-22T03:53:24.431Z,99765.69
2022-10-22T03:54:11.360Z,99773.53
2022-10-22T03:54:58.300Z,99768.16
2022-10-22T03:55:45.241Z,99767.69
2022-10-22T03:56:32.802Z,99757.28
2022-10-22T03:57:19.690Z,99755.47
2022-10-22T03:58:06.771Z,99755.81
2022-10-22T03:58:56.610Z,99759.16
2022-10-22T03:59:44.919Z,99758.31
2022-10-22T04:00:31.942Z,99761.66
2022-10-22T04:01:18.871Z,99759.63
2022-10-22T04:02:06.409Z,99751.41
2022-10-22T04:02:53.321Z,99751.41
2022-10-22T04:03:40.821Z,99754.09
2022-10-22T04:04:27.711Z,99752.56
2022-10-22T04:06:11.181Z,99753.09
2022-10-22T04:06:58.340Z,99752.94
2022-10-22T04:07:45.323Z,99752.59
2022-10-22T04:08:32.584Z,99755.28
2022-10-22T04:09:19.510Z,99758.81
2022-10-22T04:10:06.962Z,99759.63
2022-10-22T04:10:53.943Z,99757.97
2022-10-22T04:11:40.930Z,99756.13
2022-10-22T04:12:27.780Z,99759.00
2022-10-22T04:13:14.680Z,99759.47
2022-10-22T04:14:01.580Z,99761.50
2022-10-22T04:14:48.530Z,99753.41
2022-10-22T04:15:35.715Z,99762.13
2022-10-22T04:16:25.138Z,99757.63
2022-10-22T04:17:14.469Z,99754.44
2022-10-22T04:18:01.341Z,99749.37
2022-10-22T04:18:58.073Z,99749.37
2022-10-22T04:19:59.102Z,99758.56
2022-10-22T04:20:48.338Z,99751.38
2022-10-22T04:21:39.689Z,99748.69
2022-10-22T04:22:32.726Z,99742.47
2022-10-22T04:23:23.179Z,99733.44
2022-10-22T04:24:14.087Z,99733.44
2022-10-22T04:25:07.244Z,99736.13
2022-10-22T04:26:05.464Z,99733.78
2022-10-22T04:26:58.830Z,99727.72
2022-10-22T04:27:49.059Z,99732.59
2022-10-22T04:28:38.950Z,99735.09
2022-10-22T04:29:30.021Z,99734.56
2022-10-22T04:30:18.412Z,99740.09
2022-10-22T04:31:18.669Z,99730.91
2022-10-22T04:32:07.885Z,99734.09
2022-10-22T04:32:59.962Z,99737.97
2022-10-22T04:33:51.151Z,99744.78
2022-10-22T04:34:40.023Z,99740.66
2022-10-22T04:35:30.902Z,99745.31
2022-10-22T04:36:21.524Z,99739.94
2022-10-22T04:37:12.001Z,99738.97
2022-10-22T04:38:03.089Z,99742.63
2022-10-22T04:38:58.499Z,99733.59
2022-10-22T04:39:50.900Z,99734.78
2022-10-22T04:40:41.666Z,99733.75
2022-10-22T04:41:32.900Z,99729.25
2022-10-22T04:42:20.989Z,99735.09
2022-10-22T04:43:15.200Z,99735.78
2022-10-22T04:44:05.450Z,99734.25
2022-10-22T04:44:56.900Z,99725.22
2022-10-22T04:45:47.266Z,99718.69
2022-10-22T04:46:41.510Z,99723.38
2022-10-22T04:47:30.763Z,99707.41
2022-10-22T04:48:20.750Z,99716.00
2022-10-22T04:49:10.804Z,99717.34
2022-10-22T04:50:01.831Z,99718.34
2022-10-22T04:50:51.277Z,99710.78
2022-10-22T04:51:42.191Z,99715.78
2022-10-22T04:52:32.983Z,99717.66
2022-10-22T04:53:23.460Z,99726.22
2022-10-22T04:54:14.956Z,99725.91
2022-10-22T04:55:05.089Z,99722.69
2022-10-22T04:55:53.379Z,99719.84
2022-10-22T04:56:43.279Z,99717.84
2022-10-22T04:57:32.910Z,99713.47
2022-10-22T04:58:23.417Z,99714.97
2022-10-22T04:59:15.332Z,99716.66
2022-10-22T05:00:05.923Z,99713.63
2022-10-22T05:00:55.952Z,99710.94
2022-10-22T05:01:46.473Z,99704.25
2022-10-22T05:02:35.271Z,99693.00
2022-10-22T05:03:28.904Z,99695.38
2022-10-22T05:04:21.920Z,99702.91
2022-10-22T05:05:14.458Z,99702.25
2022-10-22T05:06:05.260Z,99707.28
2022-10-22T05:06:54.331Z,99705.59
2022-10-22T05:07:45.901Z,99705.59
2022-10-22T05:08:36.634Z,99714.50
2022-10-22T05:09:24.750Z,99716.69
2022-10-22T05:10:13.770Z,99717.16
2022-10-22T05:11:11.938Z,99717.84
2022-10-22T05:12:02.603Z,99724.06
2022-10-22T05:12:54.092Z,99715.16
2022-10-22T05:13:48.878Z,99719.84
2022-10-22T05:14:42.561Z,99718.34
2022-10-22T05:15:37.316Z,99725.06
2022-10-22T05:16:28.771Z,99720.72
2022-10-22T05:17:19.761Z,99717.84
2022-10-22T05:18:10.582Z,99723.88
2022-10-22T05:19:02.410Z,99720.03
2022-10-22T05:19:53.930Z,99716.47
2022-10-22T05:20:45.709Z,99719.69
2022-10-22T05:21:36.081Z,99730.44
2022-10-22T05:22:25.544Z,99723.72
2022-10-22T05:23:14.991Z,99730.09
2022-10-22T05:24:05.840Z,99732.94
2022-10-22T05:24:58.351Z,99733.47
2022-10-22T05:25:47.031Z,99731.47
2022-10-22T05:26:39.334Z,99732.63
2022-10-22T05:27:29.842Z,99739.19
2022-10-22T05:28:21.037Z,99731.28
2022-10-22T05:29:12.110Z,99735.66
2022-10-22T05:30:02.756Z,99736.13
2022-10-22T05:31:00.050Z,99734.81
2022-10-22T05:31:52.843Z,99732.59
2022-10-22T05:32:43.199Z,99736.16
2022-10-22T05:33:34.931Z,99724.41
2022-10-22T05:34:24.791Z,99732.78
2022-10-22T05:35:14.408Z,99735.66
2022-10-22T05:36:05.831Z,99731.47
2022-10-22T05:36:56.839Z,99742.53
2022-10-22T05:37:48.816Z,99738.50
2022-10-22T05:38:39.780Z,99729.63
2022-10-22T05:39:30.611Z,99731.12
2022-10-22T05:40:30.391Z,99729.09
2022-10-22T05:41:26.952Z,99736.50
2022-10-22T05:42:17.719Z,99732.00
2022-10-22T05:43:07.360Z,99721.41
2022-10-22T05:43:59.406Z,99721.72
2022-10-22T05:44:52.803Z,99720.22
2022-10-22T05:45:47.445Z,99727.44
2022-10-22T05:46:38.770Z,99724.56
2022-10-22T05:47:32.720Z,99716.69
2022-10-22T05:48:23.667Z,99723.22
2022-10-22T05:49:15.284Z,99719.03
2022-10-22T05:50:07.115Z,99716.50
2022-10-22T05:50:58.053Z,99721.72
2022-10-22T05:51:52.191Z,99716.00
2022-10-22T05:52:42.949Z,99721.22
2022-10-22T05:53:36.190Z,99717.34
2022-10-22T05:54:27.842Z,99720.38
2022-10-22T05:55:17.989Z,99725.06
2022-10-22T05:56:14.320Z,99719.34
2022-10-22T05:57:03.542Z,99720.84
2022-10-22T05:57:53.053Z,99723.72
2022-10-22T05:58:45.999Z,99720.50
2022-10-22T05:59:37.450Z,99727.56
2022-10-22T06:00:27.650Z,99723.50
2022-10-22T06:01:26.365Z,99723.12
2022-10-22T06:02:18.955Z,99719.06
2022-10-22T06:03:11.183Z,99722.41
2022-10-22T06:04:05.930Z,99727.78
2022-10-22T06:04:55.872Z,99721.56
2022-10-22T06:05:44.321Z,99723.50
2022-10-22T06:06:49.700Z,99722.16
2022-10-22T06:07:40.201Z,99725.88
2022-10-22T06:08:30.442Z,99724.84
2022-10-22T06:09:20.060Z,99717.78
2022-10-22T06:10:15.443Z,99726.50
2022-10-22T06:11:06.991Z,99729.50
2022-10-22T06:11:58.829Z,99721.09
2022-10-22T06:12:49.819Z,99723.72
2022-10-22T06:13:40.978Z,99730.09
2022-10-22T06:14:34.247Z,99733.75
2022-10-22T06:15:26.641Z,99732.00
2022-10-22T06:16:18.851Z,99726.44
2022-10-22T06:17:10.499Z,99735.72
2022-10-22T06:18:00.888Z,99734.69
2022-10-22T06:18:53.040Z,99731.66
2022-10-22T06:19:43.601Z,99729.25
2022-10-22T06:20:32.670Z,99730.12
2022-10-22T06:21:23.211Z,99727.72
2022-10-22T06:22:15.311Z,99724.66
2022-10-22T06:23:05.700Z,99727.94
2022-10-22T06:23:59.860Z,99725.56
2022-10-22T06:24:49.311Z,99728.94
2022-10-22T06:25:39.809Z,99722.50
2022-10-22T06:26:30.082Z,99723.12
2022-10-22T06:27:20.921Z,99721.94
2022-10-22T06:28:10.093Z,99718.22
2022-10-22T06:28:59.641Z,99713.13
2022-10-22T06:29:50.709Z,99714.13
2022-10-22T06:30:43.054Z,99717.78
2022-10-22T06:31:38.231Z,99713.88
2022-10-22T06:32:30.221Z,99710.81
2022-10-22T06:33:21.490Z,99710.09
2022-10-22T06:34:14.431Z,99712.59
2022-10-22T06:35:05.758Z,99715.31
2022-10-22T06:35:56.382Z,99709.25
2022-10-22T06:36:48.098Z,99720.16
2022-10-22T06:37:39.453Z,99716.88
2022-10-22T06:38:30.990Z,99731.03
2022-10-22T06:39:22.931Z,99725.28
2022-10-22T06:40:12.913Z,99735.69
2022-10-22T06:41:11.361Z,99738.22
2022-10-22T06:42:01.682Z,99736.91
2022-10-22T06:42:52.823Z,99742.56
2022-10-22T06:43:44.582Z,99743.22
2022-10-22T06:44:35.656Z,99738.88
2022-10-22T06:45:24.970Z,99745.28
2022-10-22T06:46:19.859Z,99736.84
2022-10-22T06:47:11.201Z,99741.28
2022-10-22T06:48:02.773Z,99740.75
2022-10-22T06:48:59.222Z,99737.34
2022-10-22T06:49:49.998Z,99738.25
2022-10-22T06:50:41.427Z,99734.16
2022-10-22T06:51:32.690Z,99731.38
2022-10-22T06:52:22.461Z,99718.97
2022-10-22T06:53:12.880Z,99724.44
2022-10-22T06:54:03.720Z,99718.13
2022-10-22T06:54:52.479Z,99715.16
2022-10-22T06:55:43.311Z,99714.19
2022-10-22T06:56:32.948Z,99720.72
2022-10-22T06:57:25.802Z,99713.97
2022-10-22T06:58:16.883Z,99711.59
2022-10-22T06:59:09.536Z,99715.47
2022-10-22T07:00:02.671Z,99716.63
2022-10-22T07:01:04.013Z,99718.59
2022-10-22T07:01:52.788Z,99720.78
2022-10-22T07:02:44.029Z,99717.78
2022-10-22T07:03:43.925Z,99718.47
2022-10-22T07:04:34.659Z,99726.81
2022-10-22T07:05:24.792Z,99721.28
2022-10-22T07:06:17.600Z,99720.31
2022-10-22T07:07:09.491Z,99724.28
2022-10-22T07:08:00.959Z,99726.41
2022-10-22T07:08:50.988Z,99724.38
2022-10-22T07:09:42.432Z,99726.31
2022-10-22T07:10:32.024Z,99725.06
2022-10-22T07:11:28.844Z,99727.13
2022-10-22T07:12:22.328Z,99728.59
2022-10-22T07:13:12.582Z,99723.88
2022-10-22T07:14:03.231Z,99721.19
2022-10-22T07:14:54.368Z,99718.31
2022-10-22T07:15:45.241Z,99722.91
2022-10-22T07:16:35.106Z,99714.19
2022-10-22T07:17:25.270Z,99714.84
2022-10-22T07:18:14.908Z,99717.72
2022-10-22T07:19:12.002Z,99715.91
2022-10-22T07:20:02.094Z,99710.69
2022-10-22T07:20:59.869Z,99707.97
2022-10-22T07:21:52.982Z,99711.31
2022-10-22T07:22:44.077Z,99712.59
2022-10-22T07:23:36.444Z,99711.81
2022-10-22T07:24:28.001Z,99713.72
2022-10-22T07:25:19.660Z,99715.88
2022-10-22T07:26:12.799Z,99722.22
2022-10-22T07:27:01.565Z,99730.38
2022-10-22T07:27:51.976Z,99738.34
2022-10-22T07:28:41.715Z,99722.28
2022-10-22T07:29:30.952Z,99723.16
2022-10-22T07:30:20.261Z,99723.56
2022-10-22T07:31:11.840Z,99725.22
2022-10-22T07:32:02.229Z,99713.97
2022-10-22T07:32:52.590Z,99733.38
2022-10-22T07:33:43.708Z,99726.47
2022-10-22T07:34:31.931Z,99727.91
2022-10-22T07:35:23.197Z,99729.34
2022-10-22T07:36:19.834Z,99729.31
2022-10-22T07:37:09.400Z,99724.03
2022-10-22T07:38:01.548Z,99723.38
2022-10-22T07:38:56.733Z,99722.88
2022-10-22T07:39:48.061Z,99719.22
2022-10-22T07:40:39.161Z,99715.12
2022-10-22T07:41:31.232Z,99712.69
2022-10-22T07:42:21.898Z,99717.03
2022-10-22T07:43:12.560Z,99726.16
2022-10-22T07:44:03.228Z,99725.41
2022-10-22T07:44:54.116Z,99728.28
2022-10-22T07:45:44.289Z,99727.41
2022-10-22T07:46:36.197Z,99733.03
2022-10-22T07:47:27.975Z,99737.34
2022-10-22T07:48:17.281Z,99747.97
2022-10-22T07:49:07.713Z,99749.41
2022-10-22T07:49:58.536Z,99756.06
2022-10-22T07:50:50.533Z,99757.44
2022-10-22T07:51:41.600Z,99757.97
2022-10-22T07:52:31.751Z,99757.13
2022-10-22T07:53:26.519Z,99765.03
2022-10-22T07:54:18.138Z,99762.91
2022-10-22T07:55:08.890Z,99765.03
2022-10-22T07:56:02.768Z,99763.72
2022-10-22T07:56:53.602Z,99765.16
2022-10-22T07:57:42.930Z,99771.63
2022-10-22T07:58:34.593Z,99765.78
2022-10-22T07:59:27.892Z,99764.50
2022-10-22T08:00:21.706Z,99767.84
2022-10-22T08:01:16.155Z,99770.13
2022-10-22T08:02:05.621Z,99769.09
2022-10-22T08:02:54.853Z,99774.28
2022-10-22T08:03:49.473Z,99761.75
2022-10-22T08:04:52.921Z,99766.38
2022-10-22T08:05:46.349Z,99766.38
2022-10-22T08:06:44.449Z,99771.81
2022-10-22T08:07:45.391Z,99773.25
2022-10-22T08:08:38.541Z,99772.22
2022-10-22T08:09:28.466Z,99771.63
2022-10-22T08:10:19.572Z,99771.19
2022-10-22T08:11:10.776Z,99772.87
2022-10-22T08:11:59.786Z,99761.06
2022-10-22T08:12:49.439Z,99758.72
2022-10-22T08:13:45.609Z,99755.50
2022-10-22T08:14:36.781Z,99759.66
2022-10-22T08:29:55.611Z,99770.22
2022-10-22T08:30:43.032Z,99770.63
2022-10-22T08:31:33.482Z,99781.91
2022-10-22T08:32:23.158Z,99771.72
2022-10-22T08:33:10.633Z,99761.28
2022-10-22T08:34:01.115Z,99764.13
2022-10-22T08:34:48.010Z,99769.75
2022-10-22T08:35:35.544Z,99764.87
2022-10-22T08:36:22.521Z,99768.31
2022-10-22T08:37:10.843Z,99763.56
2022-10-22T08:37:59.249Z,99761.28
2022-10-22T08:38:46.129Z,99766.78
2022-10-22T08:39:32.965Z,99758.81
2022-10-22T08:40:39.159Z,99768.44
2022-10-22T08:41:27.467Z,99765.91
2022-10-22T08:42:36.075Z,99762.38
2022-10-22T08:43:57.050Z,99773.19
2022-10-22T08:44:43.799Z,99767.13
2022-10-22T08:45:40.731Z,99772.72
2022-10-22T08:46:52.828Z,99777.00
2022-10-22T08:48:09.652Z,99777.81
2022-10-22T08:49:06.391Z,99790.28
2022-10-22T08:49:54.545Z,99793.84
2022-10-22T08:50:46.056Z,99792.44
2022-10-22T08:51:40.650Z,99796.47
2022-10-22T08:55:09.986Z,99798.13
2022-10-22T08:55:57.296Z,99804.41
2022-10-22T08:56:49.919Z,99803.59
2022-10-22T08:57:52.997Z,99799.16
2022-10-22T08:59:04.665Z,99801.59
2022-10-22T09:00:03.266Z,99801.09
2022-10-22T09:00:59.678Z,99805.72
2022-10-22T09:01:48.553Z,99805.03
2022-10-22T09:03:06.529Z,99809.41
2022-10-22T09:04:13.287Z,99809.87
2022-10-22T09:05:12.326Z,99808.25
2022-10-22T09:06:15.782Z,99809.53
2022-10-22T09:07:02.819Z,99816.28
2022-10-22T09:07:50.664Z,99809.91
2022-10-22T09:08:38.568Z,99813.16
2022-10-22T09:09:29.881Z,99813.53
2022-10-22T09:10:18.981Z,99814.38
2022-10-22T09:11:11.503Z,99811.50
2022-10-22T09:12:00.134Z,99816.56
2022-10-22T09:12:48.600Z,99817.41
2022-10-22T09:13:35.522Z,99812.63
2022-10-22T09:14:24.664Z,99803.91
2022-10-22T09:15:16.537Z,99811.97
2022-10-22T09:16:45.063Z,99811.34
2022-10-22T09:17:53.707Z,99816.81
2022-10-22T09:18:59.911Z,99834.31
2022-10-22T09:20:37.905Z,99839.69
2022-10-22T09:21:27.625Z,99841.63
2022-10-22T09:22:48.588Z,99851.38
2022-10-22T09:24:05.191Z,99852.78
2022-10-22T09:25:22.466Z,99859.59
2022-10-22T09:26:17.665Z,99855.50
2022-10-22T09:27:33.086Z,99861.72
2022-10-22T09:28:21.608Z,99850.50
2022-10-22T09:29:20.550Z,99855.72
2022-10-22T09:30:22.329Z,99863.50
2022-10-22T09:31:16.500Z,99860.62
2022-10-22T09:32:04.540Z,99866.84
2022-10-22T09:33:42.030Z,99875.81
2022-10-22T09:34:29.249Z,99876.19
2022-10-22T09:35:22.859Z,99872.63
2022-10-22T09:36:18.032Z,99878.94
2022-10-22T09:37:09.507Z,99870.63
2022-10-22T09:37:57.129Z,99874.31
2022-10-22T09:38:51.114Z,99880.03
2022-10-22T09:39:45.624Z,99877.81
2022-10-22T09:40:32.469Z,99885.81
2022-10-22T09:41:20.660Z,99881.13
2022-10-22T09:42:08.452Z,99885.09
2022-10-22T09:42:55.298Z,99885.25
2022-10-22T09:43:42.185Z,99885.25
2022-10-22T09:44:29.461Z,99889.09
2022-10-22T09:45:22.629Z,99881.06
2022-10-22T09:46:17.372Z,99879.84
2022-10-22T09:47:05.938Z,99885.03
2022-10-22T09:48:31.462Z,99886.47
2022-10-22T09:49:31.049Z,99884.22
2022-10-22T09:50:44.500Z,99888.09
2022-10-22T09:51:47.611Z,99887.75
2022-10-22T09:52:34.869Z,99872.41
2022-10-22T09:53:31.102Z,99889.19
2022-10-22T09:54:42.014Z,99880.31
2022-10-22T09:55:29.492Z,99881.69
2022-10-22T09:56:24.309Z,99879.44
2022-10-22T09:57:21.751Z,99881.41
2022-10-22T09:58:11.796Z,99877.53
2022-10-22T09:58:58.929Z,99878.00
2022-10-22T09:59:49.112Z,99884.53
2022-10-22T10:00:39.694Z,99883.75
2022-10-22T10:01:27.601Z,99894.66
2022-10-22T10:02:37.414Z,99902.72
2022-10-22T10:03:28.043Z,99894.25
2022-10-22T10:04:16.210Z,99897.59
2022-10-22T10:05:05.017Z,99891.81
2022-10-22T10:06:01.397Z,99895.81
2022-10-22T10:06:56.499Z,99890.03
2022-10-22T10:07:44.366Z,99887.06
2022-10-22T10:08:31.822Z,99888.63
2022-10-22T10:09:25.128Z,99890.72
2022-10-22T10:10:20.477Z,99891.03
2022-10-22T10:11:13.210Z,99876.12
2022-10-22T10:12:05.672Z,99882.34
2022-10-22T10:12:58.808Z,99886.63
2022-10-22T10:13:46.942Z,99885.13
2022-10-22T10:14:58.689Z,99884.97
2022-10-22T10:15:57.388Z,99887.19
2022-10-22T10:17:08.645Z,99899.88
2022-10-22T10:18:12.877Z,99893.28
2022-10-22T10:19:08.614Z,99901.63
2022-10-22T10:20:04.503Z,99899.44
2022-10-22T10:22:12.626Z,99900.13
2022-10-22T10:23:30.008Z,99902.06
2022-10-22T10:24:46.037Z,99906.09
2022-10-22T10:25:38.191Z,99899.47
2022-10-22T10:26:32.155Z,99892.50
2022-10-22T10:27:34.055Z,99885.47
2022-10-22T10:28:23.717Z,99886.31
2022-10-22T10:29:16.469Z,99888.38
2022-10-22T10:30:09.521Z,99896.16
2022-10-22T10:31:21.839Z,99897.19
2022-10-22T10:32:08.767Z,99899.00
2022-10-22T10:32:55.660Z,99902.59